createdAt,value
2022-11-23T00:02:26.217Z,1.30
2022-11-23T00:05:30.148Z,1.31
2022-11-23T00:08:32.812Z,1.33
2022-11-23T00:11:36.196Z,1.36
2022-11-23T00:14:38.581Z,1.41
2022-11-23T00:17:42.060Z,1.44
2022-11-23T00:20:44.951Z,1.44
2022-11-23T00:23:47.974Z,1.46
2022-11-23T00:26:50.597Z,1.50
2022-11-23T00:29:53.494Z,1.48
2022-11-23T00:32:56.382Z,1.58
2022-11-23T00:36:04.319Z,1.58
2022-11-23T00:39:07.063Z,1.59
2022-11-23T00:42:10.935Z,1.60
2022-11-23T00:45:13.362Z,1.61
2022-11-23T00:48:16.287Z,1.67
2022-11-23T00:51:44.680Z,1.67
2022-11-23T00:54:49.404Z,1.67
2022-11-23T00:57:52.254Z,1.70
2022-11-23T01:01:13.547Z,1.73
2022-11-23T01:04:16.667Z,1.77
2022-11-23T01:07:19.900Z,1.79
2022-11-23T01:10:22.577Z,1.86
2022-11-23T01:13:25.280Z,1.85
2022-11-23T01:16:30.163Z,1.88
2022-11-23T01:19:34.515Z,1.96
2022-11-23T01:22:37.381Z,1.93
2022-11-23T01:25:40.175Z,1.93
2022-11-23T01:28:43.130Z,1.93
2022-11-23T01:31:47.033Z,1.94
2022-11-23T01:34:52.550Z,1.95
2022-11-23T01:37:55.493Z,1.97
2022-11-23T01:40:57.976Z,1.97
2022-11-23T01:44:01.398Z,1.99
2022-11-23T01:47:06.405Z,1.98
2022-11-23T01:50:09.336Z,2.00
2022-11-23T01:53:12.194Z,1.98
2022-11-23T01:56:20.147Z,1.99
2022-11-23T01:59:24.424Z,2.02
2022-11-23T02:02:28.954Z,2.05
2022-11-23T02:05:37.462Z,2.01
2022-11-23T02:08:41.818Z,1.97
2022-11-23T02:11:44.863Z,1.98
2022-11-23T02:14:50.171Z,1.97
2022-11-23T02:17:54.893Z,2.00
2022-11-23T02:21:01.142Z,2.01
2022-11-23T02:24:12.910Z,2.11
2022-11-23T02:27:16.987Z,2.14
2022-11-23T02:30:19.845Z,2.15
2022-11-23T02:33:22.815Z,2.19
2022-11-23T02:36:36.746Z,2.21
2022-11-23T02:39:46.403Z,2.25
2022-11-23T02:42:50.234Z,2.28
2022-11-23T02:45:58.232Z,2.29
2022-11-23T02:49:01.493Z,2.28
2022-11-23T02:52:05.079Z,2.31
2022-11-23T02:55:08.210Z,2.29
2022-11-23T02:58:12.191Z,2.27
2022-11-23T03:01:14.963Z,2.25
2022-11-23T03:04:21.868Z,2.26
2022-11-23T03:07:29.637Z,2.24
2022-11-23T03:10:34.807Z,2.23
2022-11-23T03:13:37.521Z,2.27
2022-11-23T03:16:40.336Z,2.25
2022-11-23T03:19:43.619Z,2.22
2022-11-23T03:22:48.430Z,2.23
2022-11-23T03:25:57.491Z,2.20
2022-11-23T03:29:01.277Z,2.21
2022-11-23T03:32:05.772Z,2.19
2022-11-23T03:35:09.307Z,2.20
2022-11-23T03:38:21.129Z,2.22
2022-11-23T03:41:24.104Z,2.26
2022-11-23T03:44:28.641Z,2.24
2022-11-23T03:47:31.530Z,2.22
2022-11-23T03:50:34.070Z,2.19
2022-11-23T03:53:38.725Z,2.20
2022-11-23T03:56:41.952Z,2.22
2022-11-23T03:59:44.761Z,2.28
2022-11-23T04:02:49.556Z,2.30
2022-11-23T04:06:21.679Z,2.31
2022-11-23T04:09:36.843Z,2.33
2022-11-23T04:12:40.075Z,2.33
2022-11-23T04:15:43.579Z,2.35
2022-11-23T04:18:47.086Z,2.33
2022-11-23T04:21:49.711Z,2.34
2022-11-23T04:24:52.658Z,2.36
2022-11-23T04:27:55.583Z,2.39
2022-11-23T04:30:59.447Z,2.41
2022-11-23T04:34:08.146Z,2.44
2022-11-23T04:37:13.463Z,2.48
2022-11-23T04:40:18.916Z,2.53
2022-11-23T04:43:33.729Z,2.51
2022-11-23T04:46:36.263Z,2.53
2022-11-23T04:49:44.743Z,2.54
2022-11-23T04:52:47.279Z,2.57
2022-11-23T04:55:56.582Z,2.56
2022-11-23T04:58:59.286Z,2.57
2022-11-23T05:02:02.453Z,2.55
2022-11-23T05:05:17.394Z,2.56
2022-11-23T05:08:20.171Z,2.53
2022-11-23T05:11:54.840Z,2.52
2022-11-23T05:14:58.040Z,2.51
2022-11-23T05:18:08.067Z,2.48
2022-11-23T05:21:12.106Z,2.49
2022-11-23T05:24:15.742Z,2.51
2022-11-23T05:27:29.276Z,2.50
2022-11-23T05:30:32.340Z,2.49
2022-11-23T05:33:36.148Z,2.56
2022-11-23T05:36:42.340Z,2.50
2022-11-23T05:39:45.551Z,2.50
2022-11-23T05:42:49.457Z,2.44
2022-11-23T05:45:59.481Z,2.44
2022-11-23T05:49:02.161Z,2.44
2022-11-23T05:52:09.531Z,2.44
2022-11-23T05:55:14.675Z,2.47
2022-11-23T05:58:18.755Z,2.48
2022-11-23T06:01:21.914Z,2.51
2022-11-23T06:04:25.646Z,2.54
2022-11-23T06:07:28.261Z,2.49
2022-11-23T06:10:43.024Z,2.52
2022-11-23T06:13:49.039Z,2.56
2022-11-23T06:16:52.974Z,2.56
2022-11-23T06:20:07.215Z,2.60
2022-11-23T06:23:12.526Z,2.60
2022-11-23T06:26:15.859Z,2.62
2022-11-23T06:29:22.020Z,2.62
2022-11-23T06:32:24.649Z,2.62
2022-11-23T06:35:27.159Z,2.65
2022-11-23T06:38:30.570Z,2.76
2022-11-23T06:41:39.763Z,2.76
2022-11-23T06:44:43.303Z,2.76
2022-11-23T06:47:45.846Z,2.77
2022-11-23T06:50:50.192Z,2.74
2022-11-23T06:53:55.029Z,2.75
2022-11-23T06:56:57.951Z,2.75
2022-11-23T07:00:00.562Z,2.86
2022-11-23T07:03:20.735Z,2.87
2022-11-23T07:06:25.784Z,2.90
2022-11-23T07:09:32.655Z,2.93
2022-11-23T07:12:55.685Z,3.00
2022-11-23T07:16:00.545Z,3.09
2022-11-23T07:19:03.093Z,3.12
2022-11-23T07:22:06.189Z,3.22
2022-11-23T07:25:09.093Z,3.28
2022-11-23T07:28:14.588Z,3.36
2022-11-23T07:31:17.554Z,3.41
2022-11-23T07:34:20.287Z,3.45
2022-11-23T07:37:23.006Z,3.49
2022-11-23T07:40:26.725Z,3.52
2022-11-23T07:43:30.103Z,3.58
2022-11-23T07:46:33.078Z,3.63
2022-11-23T07:49:35.950Z,3.93
2022-11-23T07:52:41.079Z,4.02
2022-11-23T07:55:46.824Z,4.10
2022-11-23T07:58:51.206Z,4.14
2022-11-23T08:01:58.490Z,4.17
2022-11-23T08:05:01.996Z,4.16
2022-11-23T08:08:04.949Z,4.20
2022-11-23T08:11:09.228Z,4.16
2022-11-23T08:14:12.053Z,4.17
2022-11-23T08:17:14.697Z,4.25
2022-11-23T08:20:17.331Z,4.22
2022-11-23T08:23:20.854Z,4.18
2022-11-23T08:26:23.356Z,4.17
2022-11-23T08:29:26.176Z,4.17
2022-11-23T08:32:28.853Z,4.12
2022-11-23T08:35:33.773Z,4.06
2022-11-23T08:38:36.532Z,4.00
2022-11-23T08:41:39.124Z,3.97
2022-11-23T08:44:41.704Z,3.95
2022-11-23T08:47:44.460Z,4.02
2022-11-23T08:50:47.228Z,4.06
2022-11-23T08:53:50.938Z,4.02
2022-11-23T08:56:53.655Z,4.04
2022-11-23T08:59:56.786Z,4.13
2022-11-23T09:03:00.313Z,4.21
2022-11-23T09:06:03.381Z,4.27
2022-11-23T09:09:06.076Z,4.26
2022-11-23T09:12:08.795Z,4.25
2022-11-23T09:15:11.525Z,4.28
2022-11-23T09:18:14.350Z,4.23
2022-11-23T09:21:16.877Z,4.23
2022-11-23T09:24:20.327Z,4.23
2022-11-23T09:27:23.116Z,4.28
2022-11-23T09:30:26.487Z,4.39
2022-11-23T09:33:28.940Z,4.41
2022-11-23T09:36:31.943Z,4.37
2022-11-23T09:39:34.587Z,4.33
2022-11-23T09:42:45.424Z,4.38
2022-11-23T09:45:50.065Z,4.53
2022-11-23T09:49:17.707Z,4.81
2022-11-23T09:52:24.169Z,4.93
2022-11-23T09:55:47.979Z,5.02
2022-11-23T09:58:57.470Z,5.09
2022-11-23T10:02:02.434Z,5.21
2022-11-23T10:05:08.214Z,5.30
2022-11-23T10:08:44.799Z,5.34
2022-11-23T10:12:15.482Z,5.48
2022-11-23T10:15:36.824Z,5.45
2022-11-23T10:18:54.787Z,5.38
2022-11-23T10:22:23.265Z,5.37
2022-11-23T10:25:38.728Z,5.41
2022-11-23T10:28:45.190Z,5.45
2022-11-23T10:31:57.013Z,5.57
2022-11-23T10:35:07.655Z,5.62
2022-11-23T10:38:18.669Z,5.65
2022-11-23T10:41:24.068Z,5.72
2022-11-23T10:44:38.627Z,5.65
2022-11-23T10:47:51.673Z,5.70
2022-11-23T10:51:16.331Z,5.65
2022-11-23T10:54:45.591Z,5.68
2022-11-23T10:57:48.369Z,5.68
2022-11-23T11:01:04.114Z,5.82
2022-11-23T11:04:23.388Z,5.78
2022-11-23T11:07:31.453Z,5.76
2022-11-23T11:10:58.697Z,5.77
2022-11-23T11:14:14.924Z,5.80
2022-11-23T11:17:30.198Z,5.87
2022-11-23T11:20:36.384Z,5.95
2022-11-23T11:23:42.203Z,6.02
2022-11-23T11:27:17.901Z,6.12
2022-11-23T11:30:25.254Z,6.09
2022-11-23T11:33:49.882Z,6.08
2022-11-23T11:37:19.000Z,6.10
2022-11-23T11:40:34.532Z,6.12
2022-11-23T11:43:41.206Z,6.16
2022-11-23T11:46:52.703Z,6.20
2022-11-23T11:50:00.855Z,6.26
2022-11-23T11:53:14.736Z,6.33
2022-11-23T11:56:47.643Z,6.37
2022-11-23T11:59:58.232Z,6.54
2022-11-23T12:03:12.661Z,6.68
2022-11-23T12:06:26.784Z,6.73
2022-11-23T12:09:35.559Z,6.78
2022-11-23T12:12:39.808Z,6.77
2022-11-23T12:15:50.103Z,6.85
2022-11-23T12:19:19.676Z,6.93
2022-11-23T12:23:00.758Z,6.89
2022-11-23T12:26:22.600Z,6.91
2022-11-23T12:30:04.132Z,6.87
2022-11-23T12:33:40.555Z,6.87
2022-11-23T12:37:16.801Z,6.82
2022-11-23T12:40:44.976Z,6.82
2022-11-23T12:43:54.520Z,6.75
2022-11-23T12:47:18.775Z,6.77
2022-11-23T12:50:30.541Z,6.77
2022-11-23T12:53:54.346Z,6.80
2022-11-23T12:57:03.828Z,6.78
2022-11-23T13:00:23.468Z,6.77
2022-11-23T13:03:41.747Z,6.76
2022-11-23T13:10:30.102Z,6.76
2022-11-23T13:14:09.771Z,6.74
2022-11-23T13:17:50.721Z,6.72
2022-11-23T13:20:55.808Z,6.70
2022-11-23T13:23:58.580Z,6.68
2022-11-23T13:27:13.003Z,6.68
2022-11-23T13:31:13.851Z,6.75
2022-11-23T13:33:58.840Z,6.78
2022-11-23T13:37:17.350Z,6.74
2022-11-23T13:40:36.969Z,6.74
2022-11-23T13:43:39.639Z,6.69
2022-11-23T13:46:42.348Z,6.66
2022-11-23T13:49:52.953Z,6.66
2022-11-23T13:52:55.694Z,6.63
2022-11-23T13:56:17.286Z,6.60
2022-11-23T13:59:22.947Z,6.50
2022-11-23T14:02:31.470Z,6.38
2022-11-23T14:05:57.880Z,6.27
2022-11-23T14:09:12.800Z,6.21
2022-11-23T14:12:35.256Z,6.10
2022-11-23T14:15:41.116Z,6.03
2022-11-23T14:19:11.834Z,5.89
2022-11-23T14:22:29.269Z,5.91
2022-11-23T14:25:44.305Z,5.70
2022-11-23T14:29:17.284Z,5.55
2022-11-23T14:32:34.743Z,5.43
2022-11-23T14:36:06.286Z,5.39
2022-11-23T14:39:37.754Z,5.36
2022-11-23T14:42:45.009Z,5.34
2022-11-23T14:45:48.383Z,5.37
2022-11-23T14:48:51.767Z,5.40
2022-11-23T14:51:54.451Z,5.48
2022-11-23T14:55:00.268Z,5.61
2022-11-23T14:58:06.338Z,5.56
2022-11-23T15:01:20.218Z,5.57
2022-11-23T15:04:29.255Z,5.58
2022-11-23T15:07:39.556Z,5.62
2022-11-23T15:11:15.544Z,5.52
2022-11-23T15:14:21.453Z,5.45
2022-11-23T15:17:24.831Z,5.32
2022-11-23T15:20:32.515Z,5.30
2022-11-23T15:23:44.906Z,5.20
2022-11-23T15:26:49.497Z,5.15
2022-11-23T15:29:57.408Z,5.09
2022-11-23T15:33:09.806Z,5.03
2022-11-23T15:36:12.658Z,5.01
2022-11-23T15:39:24.130Z,4.98
2022-11-23T15:42:27.485Z,4.99
2022-11-23T15:45:37.284Z,4.95
2022-11-23T15:48:40.326Z,4.95
2022-11-23T15:51:44.854Z,4.93
2022-11-23T15:54:48.506Z,4.95
2022-11-23T15:57:55.813Z,4.92
2022-11-23T16:01:07.890Z,4.85
2022-11-23T16:04:44.191Z,4.78
2022-11-23T16:07:56.573Z,4.73
2022-11-23T16:10:59.311Z,4.71
2022-11-23T16:14:20.092Z,4.76
2022-11-23T16:17:25.727Z,4.78
2022-11-23T16:20:31.038Z,4.79
2022-11-23T16:23:48.466Z,4.82
2022-11-23T16:26:51.714Z,4.82
2022-11-23T16:29:57.583Z,4.81
2022-11-23T16:33:05.552Z,4.85
2022-11-23T16:36:08.379Z,4.80
2022-11-23T16:39:12.032Z,4.78
2022-11-23T16:42:16.220Z,4.77
2022-11-23T16:45:19.258Z,4.78
2022-11-23T16:48:27.619Z,4.71
2022-11-23T16:51:30.313Z,4.68
2022-11-23T16:54:32.777Z,4.65
2022-11-23T16:57:35.934Z,4.62
2022-11-23T17:00:39.651Z,4.58
2022-11-23T17:03:43.147Z,4.56
2022-11-23T17:06:45.791Z,4.52
2022-11-23T17:09:48.534Z,4.49
2022-11-23T17:12:54.087Z,4.43
2022-11-23T17:15:56.770Z,4.34
2022-11-23T17:19:00.086Z,4.27
2022-11-23T17:22:02.747Z,4.18
2022-11-23T17:25:14.253Z,4.10
2022-11-23T17:28:22.259Z,4.10
2022-11-23T17:31:25.481Z,4.16
2022-11-23T17:34:28.401Z,4.15
2022-11-23T17:37:31.310Z,4.13
2022-11-23T17:40:34.127Z,4.10
2022-11-23T17:43:37.295Z,4.09
2022-11-23T17:46:40.191Z,4.06
2022-11-23T17:49:42.929Z,4.05
2022-11-23T17:52:47.448Z,4.05
2022-11-23T17:55:50.443Z,4.05
2022-11-23T17:58:55.469Z,4.06
2022-11-23T18:01:58.784Z,4.06
2022-11-23T18:05:01.368Z,4.04
2022-11-23T18:08:04.525Z,4.04
2022-11-23T18:11:07.415Z,4.02
2022-11-23T18:14:10.831Z,3.99
2022-11-23T18:17:13.384Z,3.98
2022-11-23T18:20:16.297Z,4.00
2022-11-23T18:23:19.276Z,4.04
2022-11-23T18:26:25.776Z,4.00
2022-11-23T18:29:28.818Z,4.00
2022-11-23T18:32:32.032Z,4.03
2022-11-23T18:35:34.928Z,4.02
2022-11-23T18:38:38.292Z,3.99
2022-11-23T18:41:41.535Z,4.00
2022-11-23T18:44:44.473Z,3.99
2022-11-23T18:47:47.456Z,3.97
2022-11-23T18:50:51.442Z,3.96
2022-11-23T18:53:55.619Z,3.90
2022-11-23T18:56:58.556Z,3.90
2022-11-23T19:00:02.412Z,3.87
2022-11-23T19:03:05.755Z,3.84
2022-11-23T19:06:12.044Z,3.88
2022-11-23T19:09:15.213Z,4.00
2022-11-23T19:12:17.956Z,3.92
2022-11-23T19:15:21.944Z,3.87
2022-11-23T19:18:24.955Z,3.83
2022-11-23T19:21:30.417Z,3.84
2022-11-23T19:24:33.353Z,3.80
2022-11-23T19:27:37.503Z,3.82
2022-11-23T19:30:40.208Z,3.78
2022-11-23T19:33:44.671Z,3.75
2022-11-23T19:36:48.404Z,3.92
2022-11-23T19:39:51.753Z,3.85
2022-11-23T19:42:54.443Z,3.82
2022-11-23T19:45:58.455Z,3.88
2022-11-23T19:49:01.669Z,3.87
2022-11-23T19:52:06.604Z,3.84
2022-11-23T19:55:10.769Z,3.87
2022-11-23T19:58:15.053Z,3.89
2022-11-23T20:01:20.010Z,3.85
2022-11-23T20:04:23.263Z,3.87
2022-11-23T20:07:26.048Z,3.86
2022-11-23T20:10:29.324Z,3.87
2022-11-23T20:13:35.072Z,3.90
2022-11-23T20:16:38.610Z,3.92
2022-11-23T20:19:41.448Z,3.93
2022-11-23T20:22:45.544Z,3.96
2022-11-23T20:25:48.612Z,3.97
2022-11-23T20:28:52.846Z,3.98
2022-11-23T20:31:55.631Z,3.99
2022-11-23T20:34:58.700Z,4.00
2022-11-23T20:38:01.580Z,3.97
2022-11-23T20:41:16.386Z,4.00
2022-11-23T20:44:19.067Z,4.01
2022-11-23T20:47:22.527Z,4.01
2022-11-23T20:50:27.120Z,4.02
2022-11-23T20:53:31.507Z,3.99
2022-11-23T20:56:34.915Z,4.01
2022-11-23T20:59:37.892Z,3.98
2022-11-23T21:02:40.993Z,3.97
2022-11-23T21:05:44.318Z,3.98
2022-11-23T21:08:48.746Z,4.01
2022-11-23T21:12:10.155Z,4.03
2022-11-23T21:15:13.075Z,4.04
2022-11-23T21:18:16.371Z,4.05
2022-11-23T21:21:19.219Z,4.07
2022-11-23T21:24:22.272Z,4.04
2022-11-23T21:27:28.163Z,4.03
2022-11-23T21:30:31.245Z,4.04
2022-11-23T21:33:37.921Z,4.08
2022-11-23T21:36:40.731Z,4.05
2022-11-23T21:39:47.965Z,4.02
2022-11-23T21:42:54.034Z,4.02
2022-11-23T21:46:04.415Z,4.02
2022-11-23T21:49:07.611Z,4.05
2022-11-23T21:52:10.219Z,4.10
2022-11-23T21:55:12.859Z,4.11
2022-11-23T21:58:15.690Z,4.21
2022-11-23T22:01:23.656Z,4.19
2022-11-23T22:04:26.717Z,4.16
2022-11-23T22:07:29.690Z,4.13
2022-11-23T22:10:32.341Z,4.16
2022-11-23T22:13:37.161Z,4.11
2022-11-23T22:16:45.092Z,4.09
2022-11-23T22:19:48.023Z,4.11
2022-11-23T22:22:50.706Z,4.09
2022-11-23T22:25:53.247Z,4.10
2022-11-23T22:28:56.694Z,4.10
2022-11-23T22:31:59.410Z,4.11
2022-11-23T22:35:01.933Z,4.10
2022-11-23T22:38:04.721Z,4.08
2022-11-23T22:41:09.578Z,4.08
2022-11-23T22:44:12.203Z,4.07
2022-11-23T22:47:14.543Z,4.06
2022-11-23T22:50:17.624Z,4.09
2022-11-23T22:53:20.217Z,4.07
2022-11-23T22:56:22.992Z,4.00
2022-11-23T22:59:25.484Z,3.99
2022-11-23T23:02:29.314Z,3.98
2022-11-23T23:05:32.469Z,3.94
2022-11-23T23:08:35.807Z,3.97
2022-11-23T23:11:39.093Z,3.92
2022-11-23T23:14:41.806Z,3.95
2022-11-23T23:17:44.391Z,4.00
2022-11-23T23:20:47.041Z,3.96
2022-11-23T23:23:52.099Z,3.90
2022-11-23T23:26:54.635Z,3.90
2022-11-23T23:29:57.150Z,3.96
2022-11-23T23:33:00.164Z,3.99
2022-11-23T23:36:11.624Z,4.02
2022-11-23T23:39:14.629Z,4.07
2022-11-23T23:42:18.119Z,4.07
2022-11-23T23:45:20.829Z,4.08
2022-11-23T23:48:23.521Z,4.08
2022-11-23T23:51:26.391Z,4.12
2022-11-23T23:54:28.866Z,4.06
2022-11-23T23:57:31.353Z,4.05
